sensor_id;sensor_type;location;lat;lon;timestamp;temperature;humidity
11446;DHT22;5779;64.178;15.432;2023-12-20T00:01:25;-1.30;99.90
11446;DHT22;5779;64.178;15.432;2023-12-20T00:04:12;-1.30;99.90
11446;DHT22;5779;64.178;15.432;2023-12-20T00:06:59;-1.40;99.90
11446;DHT22;5779;64.178;15.432;2023-12-20T00:09:48;-1.40;99.90
11446;DHT22;5779;64.178;15.432;2023-12-20T00:12:34;-1.40;99.90
11446;DHT22;5779;64.178;15.432;2023-12-20T00:15:21;-1.30;99.90
11446;DHT22;5779;64.178;15.432;2023-12-20T00:18:08;-1.40;99.90
11446;DHT22;5779;64.178;15.432;2023-12-20T00:20:55;-1.40;99.90
11446;DHT22;5779;64.178;15.432;2023-12-20T00:23:41;-1.50;99.90
11446;DHT22;5779;64.178;15.432;2023-12-20T00:26:30;-1.60;99.90
11446;DHT22;5779;64.178;15.432;2023-12-20T00:29:17;-1.60;99.90
11446;DHT22;5779;64.178;15.432;2023-12-20T00:32:04;-1.70;99.90
11446;DHT22;5779;64.178;15.432;2023-12-20T00:34:50;-1.70;99.90
11446;DHT22;5779;64.178;15.432;2023-12-20T00:37:37;-1.90;99.90
11446;DHT22;5779;64.178;15.432;2023-12-20T00:40:24;-1.80;99.90
11446;DHT22;5779;64.178;15.432;2023-12-20T00:43:12;-1.80;99.90
11446;DHT22;5779;64.178;15.432;2023-12-20T00:45:59;-1.70;99.90
11446;DHT22;5779;64.178;15.432;2023-12-20T00:48:47;-1.60;99.90
11446;DHT22;5779;64.178;15.432;2023-12-20T00:51:33;-1.50;99.90
11446;DHT22;5779;64.178;15.432;2023-12-20T00:54:20;-1.60;99.90
11446;DHT22;5779;64.178;15.432;2023-12-20T00:57:07;-1.70;99.90
11446;DHT22;5779;64.178;15.432;2023-12-20T00:59:55;-1.70;99.90
11446;DHT22;5779;64.178;15.432;2023-12-20T01:02:41;-1.60;99.90
11446;DHT22;5779;64.178;15.432;2023-12-20T01:05:29;-1.50;99.90
11446;DHT22;5779;64.178;15.432;2023-12-20T01:08:16;-1.50;99.90
11446;DHT22;5779;64.178;15.432;2023-12-20T01:11:04;-1.40;99.90
11446;DHT22;5779;64.178;15.432;2023-12-20T01:13:51;-1.40;99.90
11446;DHT22;5779;64.178;15.432;2023-12-20T01:16:38;-1.40;99.90
11446;DHT22;5779;64.178;15.432;2023-12-20T01:19:25;-1.40;99.90
11446;DHT22;5779;64.178;15.432;2023-12-20T01:22:12;-1.40;99.90
11446;DHT22;5779;64.178;15.432;2023-12-20T01:24:59;-1.40;99.90
11446;DHT22;5779;64.178;15.432;2023-12-20T01:27:47;-1.50;99.90
11446;DHT22;5779;64.178;15.432;2023-12-20T01:30:34;-1.60;99.90
11446;DHT22;5779;64.178;15.432;2023-12-20T01:33:22;-1.60;99.90
11446;DHT22;5779;64.178;15.432;2023-12-20T01:36:09;-1.70;99.90
11446;DHT22;5779;64.178;15.432;2023-12-20T01:38:56;-1.60;99.90
11446;DHT22;5779;64.178;15.432;2023-12-20T01:41:43;-1.50;99.90
11446;DHT22;5779;64.178;15.432;2023-12-20T01:44:30;-1.50;99.90
11446;DHT22;5779;64.178;15.432;2023-12-20T01:47:17;-1.50;99.90
11446;DHT22;5779;64.178;15.432;2023-12-20T01:50:07;-1.50;99.90
11446;DHT22;5779;64.178;15.432;2023-12-20T01:52:55;-1.50;99.90
11446;DHT22;5779;64.178;15.432;2023-12-20T01:55:44;-1.50;99.90
11446;DHT22;5779;64.178;15.432;2023-12-20T01:58:31;-1.50;99.90
11446;DHT22;5779;64.178;15.432;2023-12-20T02:01:18;-1.50;99.90
11446;DHT22;5779;64.178;15.432;2023-12-20T02:04:05;-1.50;99.90
11446;DHT22;5779;64.178;15.432;2023-12-20T02:06:56;-1.40;99.90
11446;DHT22;5779;64.178;15.432;2023-12-20T02:09:44;-1.50;99.90
11446;DHT22;5779;64.178;15.432;2023-12-20T02:12:31;-1.70;99.90
11446;DHT22;5779;64.178;15.432;2023-12-20T02:15:18;-1.70;99.90
11446;DHT22;5779;64.178;15.432;2023-12-20T02:18:04;-1.80;99.90
11446;DHT22;5779;64.178;15.432;2023-12-20T02:20:52;-1.80;99.90
11446;DHT22;5779;64.178;15.432;2023-12-20T02:23:40;-1.60;99.90
11446;DHT22;5779;64.178;15.432;2023-12-20T02:26:27;-1.50;99.90
11446;DHT22;5779;64.178;15.432;2023-12-20T02:29:13;-1.50;99.90
11446;DHT22;5779;64.178;15.432;2023-12-20T02:32:00;-1.50;99.90
11446;DHT22;5779;64.178;15.432;2023-12-20T02:34:48;-1.70;99.90
11446;DHT22;5779;64.178;15.432;2023-12-20T02:37:34;-1.80;99.90
11446;DHT22;5779;64.178;15.432;2023-12-20T02:40:22;-1.90;99.90
11446;DHT22;5779;64.178;15.432;2023-12-20T02:43:09;-2.10;99.90
11446;DHT22;5779;64.178;15.432;2023-12-20T02:45:56;-2.10;99.90
11446;DHT22;5779;64.178;15.432;2023-12-20T02:48:43;-2.10;99.90
11446;DHT22;5779;64.178;15.432;2023-12-20T02:51:30;-2.10;99.90
11446;DHT22;5779;64.178;15.432;2023-12-20T02:54:16;-2.20;99.90
11446;DHT22;5779;64.178;15.432;2023-12-20T02:57:05;-2.20;99.90
11446;DHT22;5779;64.178;15.432;2023-12-20T02:59:52;-2.20;99.90
11446;DHT22;5779;64.178;15.432;2023-12-20T03:02:40;-2.30;99.90
11446;DHT22;5779;64.178;15.432;2023-12-20T03:05:26;-2.40;99.90
11446;DHT22;5779;64.178;15.432;2023-12-20T03:08:13;-2.40;99.90
11446;DHT22;5779;64.178;15.432;2023-12-20T03:11:00;-2.40;99.90
11446;DHT22;5779;64.178;15.432;2023-12-20T03:13:48;-2.50;99.90
11446;DHT22;5779;64.178;15.432;2023-12-20T03:16:35;-2.50;99.90
11446;DHT22;5779;64.178;15.432;2023-12-20T03:19:22;-2.40;99.90
11446;DHT22;5779;64.178;15.432;2023-12-20T03:22:09;-2.30;99.90
11446;DHT22;5779;64.178;15.432;2023-12-20T03:24:55;-2.40;99.90
11446;DHT22;5779;64.178;15.432;2023-12-20T03:27:42;-2.50;99.90
11446;DHT22;5779;64.178;15.432;2023-12-20T03:30:31;-2.80;99.90
11446;DHT22;5779;64.178;15.432;2023-12-20T03:33:17;-3.00;99.90
11446;DHT22;5779;64.178;15.432;2023-12-20T03:36:05;-3.20;99.90
11446;DHT22;5779;64.178;15.432;2023-12-20T03:38:51;-3.30;99.90
11446;DHT22;5779;64.178;15.432;2023-12-20T03:41:38;-3.30;99.90
11446;DHT22;5779;64.178;15.432;2023-12-20T03:44:25;-3.40;99.90
11446;DHT22;5779;64.178;15.432;2023-12-20T03:47:13;-3.40;99.90
11446;DHT22;5779;64.178;15.432;2023-12-20T03:50:00;-3.30;99.90
11446;DHT22;5779;64.178;15.432;2023-12-20T03:52:47;-3.20;99.90
11446;DHT22;5779;64.178;15.432;2023-12-20T03:55:33;-2.90;99.90
11446;DHT22;5779;64.178;15.432;2023-12-20T03:58:20;-2.90;99.90
11446;DHT22;5779;64.178;15.432;2023-12-20T04:01:09;-2.80;99.90
11446;DHT22;5779;64.178;15.432;2023-12-20T04:03:58;-3.00;99.90
11446;DHT22;5779;64.178;15.432;2023-12-20T04:06:45;-3.50;99.90
11446;DHT22;5779;64.178;15.432;2023-12-20T04:09:32;-3.60;99.90
11446;DHT22;5779;64.178;15.432;2023-12-20T04:12:19;-3.50;99.90
11446;DHT22;5779;64.178;15.432;2023-12-20T04:15:06;-3.50;99.90
11446;DHT22;5779;64.178;15.432;2023-12-20T04:17:54;-3.50;99.90
11446;DHT22;5779;64.178;15.432;2023-12-20T04:20:42;-3.40;99.90
11446;DHT22;5779;64.178;15.432;2023-12-20T04:23:29;-3.50;99.90
11446;DHT22;5779;64.178;15.432;2023-12-20T04:26:16;-3.70;99.90
11446;DHT22;5779;64.178;15.432;2023-12-20T04:29:02;-3.80;99.90
11446;DHT22;5779;64.178;15.432;2023-12-20T04:31:49;-3.70;99.90
11446;DHT22;5779;64.178;15.432;2023-12-20T04:34:37;-3.40;99.90
11446;DHT22;5779;64.178;15.432;2023-12-20T04:37:25;-3.20;99.90
11446;DHT22;5779;64.178;15.432;2023-12-20T04:40:12;-2.90;99.90
11446;DHT22;5779;64.178;15.432;2023-12-20T04:42:58;-2.80;99.90
11446;DHT22;5779;64.178;15.432;2023-12-20T04:45:45;-2.70;99.90
11446;DHT22;5779;64.178;15.432;2023-12-20T04:48:32;-2.70;99.90
11446;DHT22;5779;64.178;15.432;2023-12-20T04:51:19;-2.70;99.90
11446;DHT22;5779;64.178;15.432;2023-12-20T04:54:07;-2.60;99.90
11446;DHT22;5779;64.178;15.432;2023-12-20T04:56:54;-2.70;99.90
11446;DHT22;5779;64.178;15.432;2023-12-20T04:59:41;-2.70;99.90
11446;DHT22;5779;64.178;15.432;2023-12-20T05:02:28;-2.70;99.90
11446;DHT22;5779;64.178;15.432;2023-12-20T05:05:14;-2.80;99.90
11446;DHT22;5779;64.178;15.432;2023-12-20T05:08:03;-2.80;99.90
11446;DHT22;5779;64.178;15.432;2023-12-20T05:10:52;-2.90;99.90
11446;DHT22;5779;64.178;15.432;2023-12-20T05:13:39;-2.90;99.90
11446;DHT22;5779;64.178;15.432;2023-12-20T05:16:25;-3.00;99.90
11446;DHT22;5779;64.178;15.432;2023-12-20T05:19:12;-3.00;99.90
11446;DHT22;5779;64.178;15.432;2023-12-20T05:21:59;-3.10;99.90
11446;DHT22;5779;64.178;15.432;2023-12-20T05:24:46;-3.10;99.90
11446;DHT22;5779;64.178;15.432;2023-12-20T05:27:34;-3.00;99.90
11446;DHT22;5779;64.178;15.432;2023-12-20T05:30:21;-2.80;99.90
11446;DHT22;5779;64.178;15.432;2023-12-20T05:33:08;-2.80;99.90
11446;DHT22;5779;64.178;15.432;2023-12-20T05:35:54;-2.80;99.90
11446;DHT22;5779;64.178;15.432;2023-12-20T05:38:41;-2.70;99.90
11446;DHT22;5779;64.178;15.432;2023-12-20T05:41:28;-2.50;99.90
11446;DHT22;5779;64.178;15.432;2023-12-20T05:44:16;-2.80;99.90
11446;DHT22;5779;64.178;15.432;2023-12-20T05:47:03;-3.40;99.90
11446;DHT22;5779;64.178;15.432;2023-12-20T05:49:49;-4.00;99.90
11446;DHT22;5779;64.178;15.432;2023-12-20T05:52:36;-4.30;99.90
11446;DHT22;5779;64.178;15.432;2023-12-20T05:55:23;-4.30;99.90
11446;DHT22;5779;64.178;15.432;2023-12-20T05:58:10;-4.10;99.90
11446;DHT22;5779;64.178;15.432;2023-12-20T06:00:58;-4.00;99.90
11446;DHT22;5779;64.178;15.432;2023-12-20T06:03:46;-4.00;99.90
11446;DHT22;5779;64.178;15.432;2023-12-20T06:06:33;-4.00;99.90
11446;DHT22;5779;64.178;15.432;2023-12-20T06:09:20;-3.90;99.90
11446;DHT22;5779;64.178;15.432;2023-12-20T06:12:07;-4.00;99.90
11446;DHT22;5779;64.178;15.432;2023-12-20T06:14:54;-4.30;99.90
11446;DHT22;5779;64.178;15.432;2023-12-20T06:17:44;-4.70;99.90
11446;DHT22;5779;64.178;15.432;2023-12-20T06:20:32;-4.80;99.90
11446;DHT22;5779;64.178;15.432;2023-12-20T06:23:19;-4.60;99.90
11446;DHT22;5779;64.178;15.432;2023-12-20T06:26:05;-4.60;99.90
11446;DHT22;5779;64.178;15.432;2023-12-20T06:28:52;-4.50;99.90
11446;DHT22;5779;64.178;15.432;2023-12-20T06:31:39;-4.60;99.90
11446;DHT22;5779;64.178;15.432;2023-12-20T06:34:27;-4.60;99.90
11446;DHT22;5779;64.178;15.432;2023-12-20T06:37:14;-4.50;99.90
11446;DHT22;5779;64.178;15.432;2023-12-20T06:40:01;-4.80;99.90
11446;DHT22;5779;64.178;15.432;2023-12-20T06:42:50;-4.80;99.90
11446;DHT22;5779;64.178;15.432;2023-12-20T06:45:36;-4.90;99.90
11446;DHT22;5779;64.178;15.432;2023-12-20T06:48:23;-4.80;99.90
11446;DHT22;5779;64.178;15.432;2023-12-20T06:51:16;-4.60;99.90
11446;DHT22;5779;64.178;15.432;2023-12-20T06:54:05;-4.40;99.90
11446;DHT22;5779;64.178;15.432;2023-12-20T06:56:52;-4.40;99.90
11446;DHT22;5779;64.178;15.432;2023-12-20T06:59:39;-4.70;99.90
11446;DHT22;5779;64.178;15.432;2023-12-20T07:02:26;-5.00;99.90
11446;DHT22;5779;64.178;15.432;2023-12-20T07:05:16;-5.30;99.90
11446;DHT22;5779;64.178;15.432;2023-12-20T07:08:06;-5.50;99.90
11446;DHT22;5779;64.178;15.432;2023-12-20T07:10:53;-5.60;99.90
11446;DHT22;5779;64.178;15.432;2023-12-20T07:13:40;-5.60;99.90
11446;DHT22;5779;64.178;15.432;2023-12-20T07:16:26;-6.00;99.90
11446;DHT22;5779;64.178;15.432;2023-12-20T07:19:13;-6.20;99.90
11446;DHT22;5779;64.178;15.432;2023-12-20T07:22:00;-5.90;99.90
11446;DHT22;5779;64.178;15.432;2023-12-20T07:24:48;-5.70;99.90
11446;DHT22;5779;64.178;15.432;2023-12-20T07:27:37;-5.70;99.90
11446;DHT22;5779;64.178;15.432;2023-12-20T07:30:24;-6.10;99.90
11446;DHT22;5779;64.178;15.432;2023-12-20T07:33:11;-6.40;99.90
11446;DHT22;5779;64.178;15.432;2023-12-20T07:35:59;-6.50;99.90
11446;DHT22;5779;64.178;15.432;2023-12-20T07:38:45;-6.70;99.90
11446;DHT22;5779;64.178;15.432;2023-12-20T07:41:34;-6.70;99.90
11446;DHT22;5779;64.178;15.432;2023-12-20T07:44:20;-6.60;99.90
11446;DHT22;5779;64.178;15.432;2023-12-20T07:47:07;-6.60;99.90
11446;DHT22;5779;64.178;15.432;2023-12-20T07:49:54;-6.70;99.90
11446;DHT22;5779;64.178;15.432;2023-12-20T07:52:40;-6.80;99.90
11446;DHT22;5779;64.178;15.432;2023-12-20T07:55:27;-6.90;99.90
11446;DHT22;5779;64.178;15.432;2023-12-20T07:58:16;-7.00;99.90
11446;DHT22;5779;64.178;15.432;2023-12-20T08:01:03;-7.00;99.90
11446;DHT22;5779;64.178;15.432;2023-12-20T08:03:50;-7.30;99.90
11446;DHT22;5779;64.178;15.432;2023-12-20T08:06:37;-7.20;99.90
11446;DHT22;5779;64.178;15.432;2023-12-20T08:09:24;-7.70;99.90
11446;DHT22;5779;64.178;15.432;2023-12-20T08:12:10;-7.60;99.90
11446;DHT22;5779;64.178;15.432;2023-12-20T08:14:59;-7.90;99.90
11446;DHT22;5779;64.178;15.432;2023-12-20T08:17:45;-7.90;99.90
11446;DHT22;5779;64.178;15.432;2023-12-20T08:20:32;-8.00;99.90
11446;DHT22;5779;64.178;15.432;2023-12-20T08:23:19;-8.20;99.90
11446;DHT22;5779;64.178;15.432;2023-12-20T08:26:07;-8.60;99.90
11446;DHT22;5779;64.178;15.432;2023-12-20T08:28:54;-8.70;99.90
11446;DHT22;5779;64.178;15.432;2023-12-20T08:31:42;-8.60;99.90
11446;DHT22;5779;64.178;15.432;2023-12-20T08:34:30;-8.40;99.90
11446;DHT22;5779;64.178;15.432;2023-12-20T08:37:17;-8.30;99.90
11446;DHT22;5779;64.178;15.432;2023-12-20T08:40:04;-8.40;99.90
11446;DHT22;5779;64.178;15.432;2023-12-20T08:42:51;-8.40;99.90
11446;DHT22;5779;64.178;15.432;2023-12-20T08:45:38;-8.50;99.90
11446;DHT22;5779;64.178;15.432;2023-12-20T08:48:26;-8.40;99.90
11446;DHT22;5779;64.178;15.432;2023-12-20T08:51:13;-8.50;99.90
11446;DHT22;5779;64.178;15.432;2023-12-20T08:54:00;-8.50;99.90
11446;DHT22;5779;64.178;15.432;2023-12-20T08:56:47;-8.60;99.90
11446;DHT22;5779;64.178;15.432;2023-12-20T08:59:34;-8.60;99.90
11446;DHT22;5779;64.178;15.432;2023-12-20T09:02:20;-8.60;99.90
11446;DHT22;5779;64.178;15.432;2023-12-20T09:05:09;-8.70;99.90
11446;DHT22;5779;64.178;15.432;2023-12-20T09:07:56;-8.90;99.90
11446;DHT22;5779;64.178;15.432;2023-12-20T09:10:42;-8.90;99.90
11446;DHT22;5779;64.178;15.432;2023-12-20T09:13:29;-8.90;99.90
11446;DHT22;5779;64.178;15.432;2023-12-20T09:16:16;-8.90;99.90
11446;DHT22;5779;64.178;15.432;2023-12-20T09:19:03;-8.80;99.90
11446;DHT22;5779;64.178;15.432;2023-12-20T09:21:51;-8.80;99.90
11446;DHT22;5779;64.178;15.432;2023-12-20T09:24:38;-8.80;99.90
11446;DHT22;5779;64.178;15.432;2023-12-20T09:27:25;-8.90;99.90
11446;DHT22;5779;64.178;15.432;2023-12-20T09:30:12;-8.90;99.90
11446;DHT22;5779;64.178;15.432;2023-12-20T09:32:59;-9.00;99.90
11446;DHT22;5779;64.178;15.432;2023-12-20T09:35:46;-8.80;99.90
11446;DHT22;5779;64.178;15.432;2023-12-20T09:38:34;-9.00;99.90
11446;DHT22;5779;64.178;15.432;2023-12-20T09:41:21;-9.10;99.90
11446;DHT22;5779;64.178;15.432;2023-12-20T09:44:14;-9.10;99.90
11446;DHT22;5779;64.178;15.432;2023-12-20T09:47:03;-9.20;99.90
11446;DHT22;5779;64.178;15.432;2023-12-20T09:49:50;-9.20;99.90
11446;DHT22;5779;64.178;15.432;2023-12-20T09:52:39;-9.20;99.90
11446;DHT22;5779;64.178;15.432;2023-12-20T09:55:28;-9.20;99.90
11446;DHT22;5779;64.178;15.432;2023-12-20T09:58:15;-9.50;99.90
11446;DHT22;5779;64.178;15.432;2023-12-20T10:01:02;-9.60;99.90
11446;DHT22;5779;64.178;15.432;2023-12-20T10:03:51;-9.50;99.90
11446;DHT22;5779;64.178;15.432;2023-12-20T10:06:37;-9.30;99.90
11446;DHT22;5779;64.178;15.432;2023-12-20T10:09:24;-9.30;99.90
11446;DHT22;5779;64.178;15.432;2023-12-20T10:12:12;-9.20;99.90
11446;DHT22;5779;64.178;15.432;2023-12-20T10:14:59;-9.20;99.90
11446;DHT22;5779;64.178;15.432;2023-12-20T10:17:49;-9.10;99.90
11446;DHT22;5779;64.178;15.432;2023-12-20T10:20:35;-9.10;99.90
11446;DHT22;5779;64.178;15.432;2023-12-20T10:23:22;-9.20;99.90
11446;DHT22;5779;64.178;15.432;2023-12-20T10:26:09;-9.50;99.90
11446;DHT22;5779;64.178;15.432;2023-12-20T10:29:00;-9.70;99.90
11446;DHT22;5779;64.178;15.432;2023-12-20T10:31:48;-10.10;99.90
11446;DHT22;5779;64.178;15.432;2023-12-20T10:34:35;-10.20;99.90
11446;DHT22;5779;64.178;15.432;2023-12-20T10:37:22;-10.40;99.90
11446;DHT22;5779;64.178;15.432;2023-12-20T10:40:10;-10.30;99.90
11446;DHT22;5779;64.178;15.432;2023-12-20T10:42:58;-10.10;99.90
11446;DHT22;5779;64.178;15.432;2023-12-20T10:45:48;-10.00;99.90
11446;DHT22;5779;64.178;15.432;2023-12-20T10:48:35;-10.10;99.90
11446;DHT22;5779;64.178;15.432;2023-12-20T10:51:22;-10.10;99.90
11446;DHT22;5779;64.178;15.432;2023-12-20T10:54:11;-10.20;99.90
11446;DHT22;5779;64.178;15.432;2023-12-20T10:56:58;-10.20;99.90
11446;DHT22;5779;64.178;15.432;2023-12-20T10:59:46;-10.30;99.90
11446;DHT22;5779;64.178;15.432;2023-12-20T11:02:39;-10.40;99.90
11446;DHT22;5779;64.178;15.432;2023-12-20T11:05:33;-10.80;99.90
11446;DHT22;5779;64.178;15.432;2023-12-20T11:08:31;-11.00;99.90
11446;DHT22;5779;64.178;15.432;2023-12-20T11:11:26;-11.50;99.90
11446;DHT22;5779;64.178;15.432;2023-12-20T11:14:19;-11.70;99.90
11446;DHT22;5779;64.178;15.432;2023-12-20T11:17:09;-11.50;99.90
11446;DHT22;5779;64.178;15.432;2023-12-20T11:20:10;-11.20;99.90
11446;DHT22;5779;64.178;15.432;2023-12-20T11:22:58;-10.90;99.90
11446;DHT22;5779;64.178;15.432;2023-12-20T11:25:49;-10.70;99.90
11446;DHT22;5779;64.178;15.432;2023-12-20T11:28:38;-10.50;99.90
11446;DHT22;5779;64.178;15.432;2023-12-20T11:31:27;-10.40;99.90
11446;DHT22;5779;64.178;15.432;2023-12-20T11:34:14;-10.40;99.90
11446;DHT22;5779;64.178;15.432;2023-12-20T11:37:03;-10.40;99.90
11446;DHT22;5779;64.178;15.432;2023-12-20T11:39:55;-10.40;99.90
11446;DHT22;5779;64.178;15.432;2023-12-20T11:42:43;-10.40;99.90
11446;DHT22;5779;64.178;15.432;2023-12-20T11:45:30;-10.60;99.90
11446;DHT22;5779;64.178;15.432;2023-12-20T11:48:17;-10.60;99.90
11446;DHT22;5779;64.178;15.432;2023-12-20T11:51:09;-10.80;99.90
11446;DHT22;5779;64.178;15.432;2023-12-20T11:53:58;-10.70;99.90
11446;DHT22;5779;64.178;15.432;2023-12-20T11:56:45;-10.90;99.90
11446;DHT22;5779;64.178;15.432;2023-12-20T11:59:32;-10.90;99.90
11446;DHT22;5779;64.178;15.432;2023-12-20T12:02:18;-10.90;99.90
11446;DHT22;5779;64.178;15.432;2023-12-20T12:05:08;-11.10;99.90
11446;DHT22;5779;64.178;15.432;2023-12-20T12:07:55;-11.00;99.90
11446;DHT22;5779;64.178;15.432;2023-12-20T12:10:44;-11.00;99.90
11446;DHT22;5779;64.178;15.432;2023-12-20T12:13:31;-11.00;99.90
11446;DHT22;5779;64.178;15.432;2023-12-20T12:16:18;-11.80;99.90
11446;DHT22;5779;64.178;15.432;2023-12-20T12:19:05;-11.80;99.90
11446;DHT22;5779;64.178;15.432;2023-12-20T12:22:03;-11.50;99.90
11446;DHT22;5779;64.178;15.432;2023-12-20T12:24:50;-11.30;99.90
11446;DHT22;5779;64.178;15.432;2023-12-20T12:27:40;-11.20;99.90
11446;DHT22;5779;64.178;15.432;2023-12-20T12:30:26;-11.20;99.90
11446;DHT22;5779;64.178;15.432;2023-12-20T12:33:13;-11.40;99.90
11446;DHT22;5779;64.178;15.432;2023-12-20T12:36:01;-11.50;99.90
11446;DHT22;5779;64.178;15.432;2023-12-20T12:38:49;-11.60;99.90
11446;DHT22;5779;64.178;15.432;2023-12-20T12:41:35;-11.90;99.90
11446;DHT22;5779;64.178;15.432;2023-12-20T12:44:24;-11.90;99.90
11446;DHT22;5779;64.178;15.432;2023-12-20T12:47:11;-11.90;99.90
11446;DHT22;5779;64.178;15.432;2023-12-20T12:49:58;-11.70;99.90
11446;DHT22;5779;64.178;15.432;2023-12-20T12:52:44;-11.70;99.90
11446;DHT22;5779;64.178;15.432;2023-12-20T12:55:32;-11.70;99.90
11446;DHT22;5779;64.178;15.432;2023-12-20T12:58:20;-11.70;99.90
11446;DHT22;5779;64.178;15.432;2023-12-20T13:01:08;-11.70;99.90
11446;DHT22;5779;64.178;15.432;2023-12-20T13:03:56;-12.10;99.90
11446;DHT22;5779;64.178;15.432;2023-12-20T13:06:43;-12.20;99.90
11446;DHT22;5779;64.178;15.432;2023-12-20T13:09:29;-12.30;99.90
11446;DHT22;5779;64.178;15.432;2023-12-20T13:12:16;-12.40;99.90
11446;DHT22;5779;64.178;15.432;2023-12-20T13:15:04;-12.40;99.90
11446;DHT22;5779;64.178;15.432;2023-12-20T13:17:52;-12.60;99.90
11446;DHT22;5779;64.178;15.432;2023-12-20T13:20:39;-12.60;99.90
11446;DHT22;5779;64.178;15.432;2023-12-20T13:23:25;-12.60;99.90
11446;DHT22;5779;64.178;15.432;2023-12-20T13:26:12;-12.60;99.90
11446;DHT22;5779;64.178;15.432;2023-12-20T13:28:59;-12.50;99.90
11446;DHT22;5779;64.178;15.432;2023-12-20T13:31:45;-12.50;99.90
11446;DHT22;5779;64.178;15.432;2023-12-20T13:34:34;-12.50;99.90
11446;DHT22;5779;64.178;15.432;2023-12-20T13:37:20;-12.60;99.90
11446;DHT22;5779;64.178;15.432;2023-12-20T13:40:08;-12.60;99.90
11446;DHT22;5779;64.178;15.432;2023-12-20T13:42:55;-12.80;99.90
11446;DHT22;5779;64.178;15.432;2023-12-20T13:45:42;-12.90;99.90
11446;DHT22;5779;64.178;15.432;2023-12-20T13:48:28;-12.80;99.90
11446;DHT22;5779;64.178;15.432;2023-12-20T13:51:17;-12.80;99.90
11446;DHT22;5779;64.178;15.432;2023-12-20T13:54:04;-13.10;99.90
11446;DHT22;5779;64.178;15.432;2023-12-20T13:56:50;-13.20;99.90
11446;DHT22;5779;64.178;15.432;2023-12-20T13:59:37;-13.20;99.90
11446;DHT22;5779;64.178;15.432;2023-12-20T14:02:24;-13.20;99.90
11446;DHT22;5779;64.178;15.432;2023-12-20T14:05:17;-13.20;99.90
11446;DHT22;5779;64.178;15.432;2023-12-20T14:08:06;-13.40;99.90
11446;DHT22;5779;64.178;15.432;2023-12-20T14:10:54;-13.20;99.90
11446;DHT22;5779;64.178;15.432;2023-12-20T14:13:41;-13.10;99.90
11446;DHT22;5779;64.178;15.432;2023-12-20T14:16:28;-13.30;99.90
11446;DHT22;5779;64.178;15.432;2023-12-20T14:19:15;-13.50;99.90
11446;DHT22;5779;64.178;15.432;2023-12-20T14:22:02;-13.40;99.90
11446;DHT22;5779;64.178;15.432;2023-12-20T14:24:50;-13.20;99.90
11446;DHT22;5779;64.178;15.432;2023-12-20T14:27:37;-13.00;99.90
11446;DHT22;5779;64.178;15.432;2023-12-20T14:30:24;-12.90;99.90
11446;DHT22;5779;64.178;15.432;2023-12-20T14:33:13;-12.80;99.90
11446;DHT22;5779;64.178;15.432;2023-12-20T14:35:59;-12.80;99.90
11446;DHT22;5779;64.178;15.432;2023-12-20T14:38:46;-13.10;99.90
11446;DHT22;5779;64.178;15.432;2023-12-20T14:41:35;-13.10;99.90
11446;DHT22;5779;64.178;15.432;2023-12-20T14:44:23;-13.20;99.90
11446;DHT22;5779;64.178;15.432;2023-12-20T14:47:10;-13.90;99.90
11446;DHT22;5779;64.178;15.432;2023-12-20T14:49:57;-13.90;99.90
11446;DHT22;5779;64.178;15.432;2023-12-20T14:52:43;-13.80;99.90
11446;DHT22;5779;64.178;15.432;2023-12-20T14:55:31;-13.70;99.90
11446;DHT22;5779;64.178;15.432;2023-12-20T14:58:20;-13.90;99.90
11446;DHT22;5779;64.178;15.432;2023-12-20T15:01:07;-13.80;99.90
11446;DHT22;5779;64.178;15.432;2023-12-20T15:03:59;-13.40;99.90
11446;DHT22;5779;64.178;15.432;2023-12-20T15:06:46;-13.20;99.90
11446;DHT22;5779;64.178;15.432;2023-12-20T15:09:34;-13.00;99.90
11446;DHT22;5779;64.178;15.432;2023-12-20T15:12:21;-12.90;99.90
11446;DHT22;5779;64.178;15.432;2023-12-20T15:15:10;-12.90;99.90
11446;DHT22;5779;64.178;15.432;2023-12-20T15:17:57;-12.90;99.90
11446;DHT22;5779;64.178;15.432;2023-12-20T15:20:43;-13.00;99.90
11446;DHT22;5779;64.178;15.432;2023-12-20T15:23:30;-13.00;99.90
11446;DHT22;5779;64.178;15.432;2023-12-20T15:26:17;-12.90;99.90
11446;DHT22;5779;64.178;15.432;2023-12-20T15:29:04;-13.10;99.90
11446;DHT22;5779;64.178;15.432;2023-12-20T15:31:53;-13.10;99.90
11446;DHT22;5779;64.178;15.432;2023-12-20T15:34:43;-13.10;99.90
11446;DHT22;5779;64.178;15.432;2023-12-20T15:37:32;-13.20;99.90
11446;DHT22;5779;64.178;15.432;2023-12-20T15:40:19;-13.30;99.90
11446;DHT22;5779;64.178;15.432;2023-12-20T15:43:08;-13.20;99.90
11446;DHT22;5779;64.178;15.432;2023-12-20T15:45:54;-13.30;99.90
11446;DHT22;5779;64.178;15.432;2023-12-20T15:48:44;-13.60;99.90
11446;DHT22;5779;64.178;15.432;2023-12-20T15:51:31;-13.50;99.90
11446;DHT22;5779;64.178;15.432;2023-12-20T15:54:18;-13.40;99.90
11446;DHT22;5779;64.178;15.432;2023-12-20T15:57:04;-13.50;99.90
11446;DHT22;5779;64.178;15.432;2023-12-20T15:59:51;-13.40;99.90
11446;DHT22;5779;64.178;15.432;2023-12-20T16:02:38;-13.50;99.90
11446;DHT22;5779;64.178;15.432;2023-12-20T16:05:31;-13.90;99.90
11446;DHT22;5779;64.178;15.432;2023-12-20T16:08:20;-14.30;99.90
11446;DHT22;5779;64.178;15.432;2023-12-20T16:11:10;-14.50;99.90
11446;DHT22;5779;64.178;15.432;2023-12-20T16:13:58;-14.30;99.90
11446;DHT22;5779;64.178;15.432;2023-12-20T16:16:46;-14.00;99.90
11446;DHT22;5779;64.178;15.432;2023-12-20T16:19:35;-14.00;99.90
11446;DHT22;5779;64.178;15.432;2023-12-20T16:22:25;-13.90;99.90
11446;DHT22;5779;64.178;15.432;2023-12-20T16:25:12;-14.20;99.90
11446;DHT22;5779;64.178;15.432;2023-12-20T16:27:59;-14.10;99.90
11446;DHT22;5779;64.178;15.432;2023-12-20T16:30:45;-14.10;99.90
11446;DHT22;5779;64.178;15.432;2023-12-20T16:33:32;-14.00;99.90
11446;DHT22;5779;64.178;15.432;2023-12-20T16:36:19;-13.90;99.90
11446;DHT22;5779;64.178;15.432;2023-12-20T16:39:10;-14.10;99.90
11446;DHT22;5779;64.178;15.432;2023-12-20T16:41:56;-14.20;99.90
11446;DHT22;5779;64.178;15.432;2023-12-20T16:44:43;-14.10;99.90
11446;DHT22;5779;64.178;15.432;2023-12-20T16:47:30;-14.10;99.90
11446;DHT22;5779;64.178;15.432;2023-12-20T16:50:17;-14.20;99.90
11446;DHT22;5779;64.178;15.432;2023-12-20T16:53:04;-14.60;99.90
11446;DHT22;5779;64.178;15.432;2023-12-20T16:55:52;-14.60;99.90
11446;DHT22;5779;64.178;15.432;2023-12-20T16:58:38;-14.40;99.90
11446;DHT22;5779;64.178;15.432;2023-12-20T17:01:25;-14.40;99.90
11446;DHT22;5779;64.178;15.432;2023-12-20T17:04:14;-14.20;99.90
11446;DHT22;5779;64.178;15.432;2023-12-20T17:07:05;-14.10;99.90
11446;DHT22;5779;64.178;15.432;2023-12-20T17:09:55;-14.10;99.90
11446;DHT22;5779;64.178;15.432;2023-12-20T17:12:44;-14.10;99.90
11446;DHT22;5779;64.178;15.432;2023-12-20T17:15:31;-14.10;99.90
11446;DHT22;5779;64.178;15.432;2023-12-20T17:18:18;-14.10;99.90
11446;DHT22;5779;64.178;15.432;2023-12-20T17:21:05;-14.10;99.90
11446;DHT22;5779;64.178;15.432;2023-12-20T17:23:52;-14.20;99.90
11446;DHT22;5779;64.178;15.432;2023-12-20T17:26:39;-14.30;99.90
11446;DHT22;5779;64.178;15.432;2023-12-20T17:29:27;-14.40;99.90
11446;DHT22;5779;64.178;15.432;2023-12-20T17:32:14;-14.30;99.90